Time;durP1;ratioP1;P1;durP2;ratioP2;P2;SDS_P1;SDS_P2;PMS_P1;PMS_P2;Temp;Humidity;BMP_temperature;BMP_pressure;BME280_temperature;BME280_humidity;BME280_pressure;Samples;Min_cycle;Max_cycle;Signal;HPM_P1;HPM_P2
2021/09/17 00:01:44;;;;;;;22.85;13.00;;;12.60;69.20;;;;;;4919721;29;20044;-94
2021/09/17 00:04:10;;;;;;;17.48;10.43;;;12.60;69.30;;;;;;4919701;29;20115;-94
2021/09/17 00:06:36;;;;;;;25.65;12.13;;;12.60;69.40;;;;;;4919718;29;20494;-94
2021/09/17 00:09:02;;;;;;;21.83;11.20;;;12.50;69.30;;;;;;4919523;29;20133;-95
2021/09/17 00:11:28;;;;;;;19.13;9.50;;;12.50;69.50;;;;;;4919416;29;20091;-94
2021/09/17 00:13:53;;;;;;;17.33;10.23;;;12.50;69.60;;;;;;4920709;29;20040;-94
2021/09/17 00:16:19;;;;;;;20.85;13.05;;;12.50;69.80;;;;;;4921862;29;20501;-94
2021/09/17 00:18:45;;;;;;;16.58;11.15;;;12.40;70.10;;;;;;4921760;29;20028;-95
2021/09/17 00:21:11;;;;;;;21.95;12.32;;;12.40;70.10;;;;;;4925566;29;20048;-94
2021/09/17 00:23:38;;;;;;;16.23;10.05;;;12.40;70.20;;;;;;4932383;29;20502;-94
2021/09/17 00:26:03;;;;;;;24.85;13.55;;;12.40;70.40;;;;;;4935258;29;20052;-95
2021/09/17 00:28:29;;;;;;;23.63;11.27;;;12.30;70.60;;;;;;4927886;29;20055;-95
2021/09/17 00:30:55;;;;;;;25.40;11.82;;;12.30;70.70;;;;;;4918888;29;20437;-94
2021/09/17 00:33:21;;;;;;;22.23;11.35;;;12.30;70.80;;;;;;4919933;29;20076;-94
2021/09/17 00:35:46;;;;;;;23.80;12.77;;;12.30;71.00;;;;;;4921893;29;20039;-95
2021/09/17 00:38:12;;;;;;;19.08;11.50;;;12.20;71.10;;;;;;4918933;29;20028;-94
2021/09/17 00:40:38;;;;;;;23.85;12.10;;;12.20;71.30;;;;;;4918511;29;20032;-94
2021/09/17 00:43:03;;;;;;;23.42;11.35;;;12.20;71.30;;;;;;4918774;29;20036;-94
2021/09/17 00:45:29;;;;;;;23.80;12.95;;;12.10;71.40;;;;;;4918532;29;20028;-95
2021/09/17 00:47:55;;;;;;;22.83;11.68;;;12.10;71.50;;;;;;4918346;29;20054;-95
2021/09/17 00:50:24;;;;;;;21.67;11.45;;;12.10;71.60;;;;;;4918424;29;20032;-94
2021/09/17 00:52:51;;;;;;;23.85;13.48;;;12.10;71.80;;;;;;4918240;29;20115;-95
2021/09/17 00:55:18;;;;;;;18.90;10.77;;;12.10;71.90;;;;;;4918237;29;20056;-94
2021/09/17 00:57:44;;;;;;;24.60;11.48;;;12.10;72.10;;;;;;4918339;29;20036;-94
2021/09/17 01:00:13;;;;;;;20.08;11.38;;;12.10;72.20;;;;;;4918230;29;20084;-95
2021/09/17 01:02:39;;;;;;;19.13;11.02;;;12.10;72.20;;;;;;4918454;29;20032;-94
2021/09/17 01:05:08;;;;;;;24.40;12.27;;;12.00;72.30;;;;;;4918159;29;20032;-94
2021/09/17 01:07:33;;;;;;;17.00;11.80;;;12.00;72.40;;;;;;4918218;29;20028;-94
2021/09/17 01:10:00;;;;;;;19.80;11.48;;;12.00;72.60;;;;;;4918227;29;20028;-94
2021/09/17 01:12:26;;;;;;;17.30;10.65;;;12.00;72.60;;;;;;4918319;29;20028;-94
2021/09/17 01:14:52;;;;;;;19.10;9.95;;;11.90;72.70;;;;;;4918118;29;20033;-95
2021/09/17 01:17:19;;;;;;;18.75;11.43;;;11.90;73.00;;;;;;4918204;29;20032;-94
2021/09/17 01:19:48;;;;;;;18.02;11.35;;;11.90;73.00;;;;;;4918056;29;20035;-94
2021/09/17 01:22:14;;;;;;;16.58;9.88;;;11.80;73.20;;;;;;4918056;29;20036;-94
2021/09/17 01:24:40;;;;;;;16.33;10.77;;;11.80;73.40;;;;;;4918475;29;20487;-94
2021/09/17 01:27:07;;;;;;;20.42;11.20;;;11.80;73.40;;;;;;4917842;29;20052;-94
2021/09/17 01:29:33;;;;;;;17.95;9.38;;;11.80;73.70;;;;;;4918495;29;20036;-94
2021/09/17 01:31:59;;;;;;;21.88;9.60;;;11.80;73.90;;;;;;4918497;29;20131;-94
2021/09/17 01:34:25;;;;;;;18.00;9.85;;;11.70;73.90;;;;;;4919584;29;20064;-94
2021/09/17 01:36:52;;;;;;;15.25;9.48;;;11.70;74.10;;;;;;4918185;29;20115;-94
2021/09/17 01:39:19;;;;;;;15.70;7.93;;;11.70;74.10;;;;;;4917692;29;20071;-94
2021/09/17 01:41:46;;;;;;;13.90;9.40;;;11.70;74.30;;;;;;4917713;29;20036;-94
2021/09/17 01:44:12;;;;;;;20.58;8.98;;;11.70;74.40;;;;;;4917953;29;20028;-94
2021/09/17 01:46:38;;;;;;;14.63;8.98;;;11.60;74.40;;;;;;4917528;29;20459;-94
2021/09/17 01:49:04;;;;;;;13.55;8.43;;;11.70;75.20;;;;;;4917262;29;20111;-94
2021/09/17 01:51:30;;;;;;;15.23;8.70;;;11.60;74.90;;;;;;4917554;29;20515;-95
2021/09/17 01:53:56;;;;;;;14.55;7.00;;;11.60;74.90;;;;;;4917577;29;20024;-95
2021/09/17 01:56:23;;;;;;;16.38;8.27;;;11.60;75.10;;;;;;4917609;29;20055;-94
2021/09/17 01:58:50;;;;;;;14.98;7.55;;;11.60;75.20;;;;;;4917303;29;20430;-95
2021/09/17 02:01:16;;;;;;;18.67;7.55;;;11.50;75.20;;;;;;4917358;29;20472;-94
2021/09/17 02:03:42;;;;;;;23.67;10.18;;;11.60;75.40;;;;;;4917679;29;20028;-94
2021/09/17 02:06:07;;;;;;;14.18;8.52;;;11.60;75.40;;;;;;4917227;29;20051;-95
2021/09/17 02:08:33;;;;;;;19.55;9.93;;;11.50;75.40;;;;;;4917535;29;20361;-94
2021/09/17 02:10:59;;;;;;;15.48;9.13;;;11.60;75.50;;;;;;4917442;29;20448;-94
2021/09/17 02:13:25;;;;;;;16.73;8.18;;;11.50;75.70;;;;;;4917540;29;20119;-94
2021/09/17 02:15:52;;;;;;;14.30;7.72;;;11.50;75.80;;;;;;4916827;29;20045;-94
2021/09/17 02:18:20;;;;;;;13.00;7.18;;;11.50;76.00;;;;;;4918282;29;20028;-95
2021/09/17 02:20:47;;;;;;;16.25;8.52;;;11.40;75.80;;;;;;4917310;29;20032;-94
2021/09/17 02:23:13;;;;;;;17.17;8.50;;;11.40;76.00;;;;;;4917755;29;20079;-94
2021/09/17 02:25:38;;;;;;;16.17;8.20;;;11.40;76.10;;;;;;4918808;29;20032;-95
2021/09/17 02:28:04;;;;;;;15.75;8.43;;;11.40;76.40;;;;;;4920529;29;20035;-94
2021/09/17 02:30:30;;;;;;;17.05;8.07;;;11.40;76.50;;;;;;4920538;29;20479;-94
2021/09/17 02:32:56;;;;;;;17.08;7.97;;;11.30;76.50;;;;;;4920157;29;20070;-95
2021/09/17 02:35:22;;;;;;;18.50;7.32;;;11.30;76.50;;;;;;4921863;29;20094;-94
2021/09/17 02:37:48;;;;;;;13.77;6.90;;;11.30;76.70;;;;;;4922730;29;20197;-94
2021/09/17 02:40:15;;;;;;;15.27;8.13;;;11.30;76.80;;;;;;4920619;29;20491;-94
2021/09/17 02:42:42;;;;;;;16.02;7.88;;;11.30;76.90;;;;;;4920481;29;20394;-94
2021/09/17 02:45:09;;;;;;;14.57;7.40;;;11.30;77.20;;;;;;4920365;29;20028;-94
2021/09/17 02:47:36;;;;;;;13.18;6.80;;;11.20;77.10;;;;;;4920079;29;20035;-94
2021/09/17 02:50:03;;;;;;;12.10;6.72;;;11.20;77.20;;;;;;4920370;29;20027;-94
2021/09/17 02:52:28;;;;;;;14.02;7.07;;;11.20;77.30;;;;;;4920076;29;20114;-94
2021/09/17 02:54:54;;;;;;;10.23;5.68;;;11.20;77.60;;;;;;4919881;29;20050;-95
2021/09/17 02:57:20;;;;;;;11.98;7.38;;;11.20;77.60;;;;;;4920048;29;20032;-95
2021/09/17 02:59:45;;;;;;;12.25;5.80;;;11.20;77.60;;;;;;4920109;29;20373;-94
2021/09/17 03:02:12;;;;;;;14.38;6.90;;;11.20;77.70;;;;;;4919791;29;20028;-95
2021/09/17 03:04:38;;;;;;;12.35;6.75;;;11.20;77.90;;;;;;4920213;29;20491;-94
2021/09/17 03:07:04;;;;;;;13.90;6.90;;;11.10;78.10;;;;;;4920567;29;20119;-94
2021/09/17 03:09:30;;;;;;;13.93;6.85;;;11.10;78.20;;;;;;4920632;29;20040;-95
2021/09/17 03:11:55;;;;;;;16.48;7.53;;;11.10;78.40;;;;;;4920296;29;20380;-94
2021/09/17 03:14:24;;;;;;;17.48;7.55;;;11.10;78.40;;;;;;4921689;29;20039;-94
2021/09/17 03:16:50;;;;;;;12.23;6.40;;;11.10;78.50;;;;;;4919837;29;20059;-94
2021/09/17 03:19:16;;;;;;;19.25;8.30;;;11.10;78.60;;;;;;4919996;29;20028;-95
2021/09/17 03:21:43;;;;;;;17.77;7.18;;;11.10;79.30;;;;;;4919910;29;20036;-94
2021/09/17 03:24:08;;;;;;;13.13;6.80;;;11.10;78.60;;;;;;4920475;29;20086;-94
2021/09/17 03:26:37;;;;;;;16.23;7.15;;;11.10;78.70;;;;;;4917956;29;20056;-94
2021/09/17 03:29:03;;;;;;;14.02;7.57;;;11.10;78.90;;;;;;4920959;29;20058;-94
2021/09/17 03:31:29;;;;;;;18.88;6.65;;;11.10;79.00;;;;;;4920500;29;20693;-95
2021/09/17 03:33:58;;;;;;;15.50;8.00;;;11.10;79.50;;;;;;4919997;29;20115;-95
2021/09/17 03:36:27;;;;;;;12.60;6.90;;;11.10;78.90;;;;;;4921319;29;20099;-95
2021/09/17 03:38:57;;;;;;;14.05;6.18;;;11.10;79.00;;;;;;4921839;29;20055;-95
2021/09/17 03:41:23;;;;;;;14.98;6.38;;;11.10;79.20;;;;;;4919841;29;20040;-95
2021/09/17 03:43:49;;;;;;;17.23;7.90;;;11.10;79.10;;;;;;4919871;29;20431;-95
2021/09/17 03:46:15;;;;;;;17.25;7.38;;;11.10;79.20;;;;;;4919590;29;20036;-95
2021/09/17 03:48:41;;;;;;;16.08;7.72;;;11.10;79.40;;;;;;4920753;29;20361;-95
2021/09/17 03:51:07;;;;;;;13.25;6.90;;;11.20;79.20;;;;;;4921315;29;20039;-95
2021/09/17 03:53:33;;;;;;;17.55;7.75;;;11.20;79.20;;;;;;4921717;29;20024;-94
2021/09/17 03:56:02;;;;;;;12.25;7.28;;;11.20;79.20;;;;;;4921815;29;20035;-94
2021/09/17 03:58:27;;;;;;;10.82;6.65;;;11.30;79.20;;;;;;4927232;29;20123;-94
2021/09/17 04:00:53;;;;;;;14.43;6.55;;;11.30;79.10;;;;;;4928004;29;20064;-94
2021/09/17 04:03:19;;;;;;;14.82;7.32;;;11.30;79.20;;;;;;4926051;29;20036;-94
2021/09/17 04:05:45;;;;;;;15.60;6.60;;;11.30;79.20;;;;;;4920784;29;20032;-94
2021/09/17 04:08:10;;;;;;;10.27;5.95;;;11.40;79.20;;;;;;4919826;29;20483;-94
2021/09/17 04:10:36;;;;;;;9.55;5.75;;;11.40;79.20;;;;;;4919690;29;20032;-94
2021/09/17 04:13:02;;;;;;;14.38;5.63;;;11.40;79.80;;;;;;4921842;29;20526;-94
2021/09/17 04:15:28;;;;;;;10.15;6.32;;;11.50;79.30;;;;;;4919172;29;20028;-94
2021/09/17 04:17:56;;;;;;;11.75;6.80;;;11.50;79.20;;;;;;4919963;29;20156;-93
2021/09/17 04:20:21;;;;;;;12.20;6.85;;;11.50;79.30;;;;;;4919458;29;20048;-94
2021/09/17 04:22:47;;;;;;;10.85;6.60;;;11.60;79.30;;;;;;4919313;29;20028;-95
2021/09/17 04:25:14;;;;;;;11.70;6.82;;;11.60;79.20;;;;;;4920045;29;20440;-94
2021/09/17 04:27:43;;;;;;;10.65;6.47;;;11.60;79.20;;;;;;4919474;29;20055;-95
2021/09/17 04:30:10;;;;;;;11.30;7.45;;;11.70;79.30;;;;;;4920133;29;20047;-94
2021/09/17 04:32:36;;;;;;;14.43;6.20;;;11.70;79.20;;;;;;4921991;29;20029;-94
2021/09/17 04:35:03;;;;;;;16.63;7.25;;;11.80;79.10;;;;;;4920901;29;20535;-94
2021/09/17 04:37:29;;;;;;;14.32;7.93;;;11.90;79.20;;;;;;4921550;29;20032;-95
2021/09/17 04:39:55;;;;;;;13.15;6.72;;;12.00;79.10;;;;;;4920819;29;20083;-95
2021/09/17 04:42:21;;;;;;;12.90;6.65;;;12.00;79.00;;;;;;4919044;29;20135;-94
2021/09/17 04:44:47;;;;;;;13.15;7.45;;;12.10;78.80;;;;;;4920631;29;20115;-94
2021/09/17 04:47:13;;;;;;;20.00;8.48;;;12.20;78.80;;;;;;4920370;29;20072;-94
2021/09/17 04:49:38;;;;;;;14.75;6.32;;;12.30;78.70;;;;;;4919363;29;20032;-94
2021/09/17 04:52:04;;;;;;;13.02;7.55;;;12.40;78.40;;;;;;4920899;29;20032;-94
2021/09/17 04:54:38;;;;;;;11.75;7.65;;;12.50;78.20;;;;;;4921098;29;20028;-94
2021/09/17 04:57:04;;;;;;;18.05;7.28;;;12.60;78.20;;;;;;4919905;29;20036;-94
2021/09/17 04:59:30;;;;;;;10.65;6.20;;;12.70;77.90;;;;;;4919976;29;20502;-94
2021/09/17 05:01:59;;;;;;;10.15;6.00;;;12.80;77.80;;;;;;4914819;29;20041;-93
2021/09/17 05:04:25;;;;;;;10.05;6.18;;;12.90;77.60;;;;;;4900205;29;20040;-94
2021/09/17 05:06:58;;;;;;;11.10;7.53;;;13.10;77.40;;;;;;4894246;29;20028;-94
2021/09/17 05:09:24;;;;;;;10.20;6.70;;;13.30;77.20;;;;;;4900168;29;20029;-93
2021/09/17 05:11:53;;;;;;;17.30;7.18;;;13.40;76.70;;;;;;4898478;29;20037;-94
2021/09/17 05:14:18;;;;;;;12.45;8.13;;;13.60;76.30;;;;;;4906785;29;20551;-94
2021/09/17 05:16:45;;;;;;;10.07;6.85;;;13.80;75.90;;;;;;4899494;29;20124;-93
2021/09/17 05:19:24;;;;;;;;;;;;;;;;;;;;;
2021/09/17 05:21:56;;;;;;;10.05;6.47;;;14.10;75.20;;;;;;4916390;29;20059;-94
2021/09/17 05:24:28;;;;;;;8.85;7.38;;;14.30;74.70;;;;;;4911813;29;20059;-94
2021/09/17 05:26:57;;;;;;;11.95;6.53;;;14.40;74.30;;;;;;4899291;29;20087;-94
2021/09/17 05:29:29;;;;;;;16.63;7.13;;;14.60;73.90;;;;;;4898927;29;20032;-94
2021/09/17 05:32:01;;;;;;;9.60;6.63;;;14.80;73.30;;;;;;4893887;29;20135;-94
2021/09/17 05:34:40;;;;;;;10.10;6.90;;;15.00;72.80;;;;;;4897527;29;20024;-94
2021/09/17 05:37:08;;;;;;;10.68;7.15;;;15.10;72.80;;;;;;4895976;29;20037;-94
2021/09/17 05:39:40;;;;;;;9.45;6.88;;;15.30;71.80;;;;;;4888305;29;20033;-94
2021/09/17 05:42:13;;;;;;;8.85;6.70;;;15.40;71.40;;;;;;4899121;29;20036;-93
2021/09/17 05:44:39;;;;;;;10.02;6.82;;;15.60;70.90;;;;;;4900472;29;20397;-94
2021/09/17 05:47:07;;;;;;;9.27;5.70;;;15.70;70.40;;;;;;4915601;29;20032;-94
2021/09/17 05:49:49;;;;;;;;;;;;;;;;;;;;;
2021/09/17 05:52:15;;;;;;;7.60;5.18;;;16.00;69.30;;;;;;4919522;29;20040;-94
2021/09/17 05:54:46;;;;;;;9.38;6.75;;;16.20;68.80;;;;;;4919739;29;20060;-95
2021/09/17 05:57:14;;;;;;;10.93;7.45;;;16.40;68.40;;;;;;4921285;29;20036;-95
2021/09/17 05:59:40;;;;;;;9.82;7.25;;;16.60;67.90;;;;;;4920677;29;20072;-94
2021/09/17 06:02:16;;;;;;;8.93;5.80;;;16.70;67.30;;;;;;4923714;29;20043;-95
2021/09/17 06:04:43;;;;;;;16.40;7.38;;;16.90;66.80;;;;;;4924577;29;20039;-93
2021/09/17 06:07:12;;;;;;;9.23;6.15;;;17.10;66.30;;;;;;4922701;29;20027;-94
2021/09/17 06:09:39;;;;;;;8.98;6.53;;;17.20;65.70;;;;;;4919924;29;20046;-92
2021/09/17 06:12:09;;;;;;;15.55;8.05;;;17.40;65.20;;;;;;4912766;29;20034;-92
2021/09/17 06:14:40;;;;;;;18.65;11.88;;;17.50;64.60;;;;;;4918396;29;20036;-93
2021/09/17 06:17:08;;;;;;;26.60;14.85;;;17.60;63.80;;;;;;4921095;29;20032;-91
2021/09/17 06:19:40;;;;;;;46.97;25.25;;;17.70;63.50;;;;;;4919289;29;20083;-95
2021/09/17 06:22:18;;;;;;;44.25;25.42;;;17.90;63.20;;;;;;4902775;29;20056;-95
2021/09/17 06:28:09;;;;;;;38.85;19.83;;;18.10;62.30;;;;;;4914635;29;20392;-94
2021/09/17 06:31:35;;;;;;;37.38;20.70;;;18.30;62.30;;;;;;4918266;29;20506;-93
2021/09/17 06:37:23;;;;;;;41.65;25.20;;;18.60;60.60;;;;;;4861877;29;20150;-95
2021/09/17 06:43:11;;;;;;;56.67;27.65;;;18.90;60.40;;;;;;4874327;29;20080;-96
2021/09/17 06:49:06;;;;;;;39.33;22.58;;;19.20;59.40;;;;;;4869326;29;20143;-96
2021/09/17 06:51:33;;;;;;;36.05;20.65;;;19.40;59.50;;;;;;4849151;29;20045;-95
2021/09/17 06:53:59;;;;;;;32.88;17.85;;;19.50;59.20;;;;;;4881145;29;20025;-95
2021/09/17 06:56:28;;;;;;;21.20;13.00;;;19.60;58.60;;;;;;4888992;29;20447;-94
2021/09/17 06:58:57;;;;;;;23.00;12.93;;;19.80;58.40;;;;;;4921515;29;20464;-95
2021/09/17 07:01:25;;;;;;;19.95;12.15;;;19.90;58.20;;;;;;4926830;29;20048;-96
2021/09/17 07:03:57;;;;;;;15.93;10.10;;;20.00;57.80;;;;;;4927057;29;20028;-94
2021/09/17 07:06:24;;;;;;;15.27;10.18;;;20.20;57.40;;;;;;4929554;29;20028;-94
2021/09/17 07:08:52;;;;;;;19.58;10.93;;;20.30;57.10;;;;;;4923599;29;20036;-93
2021/09/17 07:11:19;;;;;;;18.30;11.68;;;20.40;56.60;;;;;;4925186;29;20036;-95
2021/09/17 07:13:47;;;;;;;14.07;9.40;;;20.50;56.20;;;;;;4924918;29;20028;-94
2021/09/17 07:16:13;;;;;;;18.02;11.23;;;20.60;55.80;;;;;;4921216;29;20032;-92
2021/09/17 07:18:45;;;;;;;18.38;12.02;;;20.70;55.20;;;;;;4921364;29;20377;-92
2021/09/17 07:24:37;;;;;;;21.35;11.90;;;20.90;55.00;;;;;;4925885;29;20043;-93
2021/09/17 07:30:32;;;;;;;14.60;7.88;;;21.10;54.30;;;;;;4950267;29;20107;-92
2021/09/17 07:33:41;;;;;;;17.57;8.97;;;21.20;53.80;;;;;;4934106;29;20050;-92
2021/09/17 07:36:09;;;;;;;20.52;9.85;;;21.30;53.40;;;;;;4943851;29;20035;-92
2021/09/17 07:38:36;;;;;;;11.82;7.53;;;21.40;53.60;;;;;;4939244;29;20090;-91
2021/09/17 07:41:02;;;;;;;11.20;7.45;;;21.50;53.40;;;;;;4922373;29;20550;-90
2021/09/17 07:43:27;;;;;;;11.18;7.97;;;21.60;53.20;;;;;;4922332;29;20032;-92
2021/09/17 07:45:53;;;;;;;12.68;7.75;;;21.60;52.90;;;;;;4922979;29;20063;-94
2021/09/17 07:48:28;;;;;;;18.50;11.77;;;21.70;52.80;;;;;;4923624;29;20038;-90
2021/09/17 07:50:54;;;;;;;18.42;10.48;;;21.80;52.60;;;;;;4913890;29;20128;-92
2021/09/17 07:57:06;;;;;;;23.00;10.70;;;22.00;52.50;;;;;;4943553;29;20073;-93
2021/09/17 07:59:32;;;;;;;19.88;13.18;;;22.10;52.20;;;;;;4925200;29;20024;-94
2021/09/17 08:01:58;;;;;;;16.67;9.98;;;22.20;51.80;;;;;;4925362;29;20038;-94
2021/09/17 08:04:38;;;;;;;15.30;10.60;;;22.30;51.90;;;;;;4926174;29;20126;-92
2021/09/17 08:07:05;;;;;;;12.95;8.70;;;22.40;51.60;;;;;;4907544;29;20028;-93
2021/09/17 08:09:33;;;;;;;16.48;7.95;;;22.50;51.70;;;;;;4906320;29;20095;-92
2021/09/17 08:12:04;;;;;;;12.10;9.88;;;22.60;51.40;;;;;;4934503;29;20031;-93
2021/09/17 08:14:31;;;;;;;12.10;8.57;;;22.60;51.20;;;;;;4920012;29;20432;-91
2021/09/17 08:16:58;;;;;;;12.95;8.90;;;22.70;51.20;;;;;;4928646;29;20031;-92
2021/09/17 08:19:25;;;;;;;12.82;8.63;;;22.80;51.00;;;;;;4922149;29;20468;-92
2021/09/17 08:21:51;;;;;;;13.50;8.10;;;22.90;50.90;;;;;;4922339;29;20032;-92
2021/09/17 08:24:16;;;;;;;12.40;6.95;;;23.00;50.80;;;;;;4922787;29;20024;-92
2021/09/17 08:26:46;;;;;;;8.50;5.80;;;23.10;50.80;;;;;;4923022;29;20464;-94
2021/09/17 08:29:11;;;;;;;9.00;5.50;;;23.30;50.60;;;;;;4922257;29;20028;-92
2021/09/17 08:31:38;;;;;;;7.65;4.80;;;23.40;51.00;;;;;;4922648;29;20042;-93
2021/09/17 08:34:05;;;;;;;6.45;5.28;;;23.60;50.20;;;;;;4921871;29;20028;-93
2021/09/17 08:36:54;;;;;;;9.98;6.75;;;23.70;50.20;;;;;;4922395;29;20367;-93
2021/09/17 08:39:19;;;;;;;9.18;6.88;;;23.80;49.80;;;;;;4922272;29;20038;-93
2021/09/17 08:45:18;;;;;;;8.85;5.38;;;23.90;49.70;;;;;;4938862;29;20144;-93
2021/09/17 08:47:51;;;;;;;6.88;4.88;;;24.00;49.10;;;;;;4922825;29;20034;-91
2021/09/17 08:50:25;;;;;;;6.10;4.80;;;24.00;49.70;;;;;;4924898;29;20024;-91
2021/09/17 08:52:51;;;;;;;7.03;4.32;;;24.10;49.50;;;;;;4923004;29;20036;-90
2021/09/17 08:55:17;;;;;;;8.38;5.05;;;24.10;49.60;;;;;;4924215;29;20443;-92
2021/09/17 08:57:44;;;;;;;14.07;7.60;;;24.20;49.70;;;;;;4920313;29;20147;-92
2021/09/17 09:00:55;;;;;;;11.40;7.03;;;24.20;49.50;;;;;;4952993;29;20036;-91
2021/09/17 09:03:37;;;;;;;9.20;6.10;;;24.30;49.30;;;;;;4923267;29;20071;-92
2021/09/17 09:06:13;;;;;;;8.50;5.07;;;24.40;49.20;;;;;;4905927;29;20127;-91
2021/09/17 09:08:42;;;;;;;8.25;4.97;;;24.40;49.30;;;;;;4951610;29;20434;-90
2021/09/17 09:11:23;;;;;;;9.68;4.78;;;24.50;49.30;;;;;;4902616;29;20081;-91
2021/09/17 09:27:55;;;;;;;6.63;3.78;;;25.00;48.50;;;;;;4905859;29;20120;-91
2021/09/17 09:30:30;;;;;;;8.18;4.07;;;25.10;48.40;;;;;;4900189;29;20104;-91
2021/09/17 09:33:45;;;;;;;4.63;3.67;;;25.10;48.80;;;;;;4900175;29;20100;-92
2021/09/17 09:36:17;;;;;;;5.22;3.60;;;25.20;48.80;;;;;;4899575;29;20024;-92
2021/09/17 09:42:31;;;;;;;7.30;4.00;;;25.50;48.90;;;;;;4918568;29;20083;-92
2021/09/17 09:45:33;;;;;;;4.55;3.60;;;25.60;48.40;;;;;;4919111;29;20036;-92
2021/09/17 09:47:59;;;;;;;4.13;3.13;;;25.60;48.50;;;;;;4903183;29;20028;-89
2021/09/17 09:50:29;;;;;;;5.25;4.03;;;25.70;48.60;;;;;;4911826;29;20488;-89
2021/09/17 09:52:56;;;;;;;5.22;3.80;;;25.70;48.60;;;;;;4909870;29;20028;-90
2021/09/17 09:55:23;;;;;;;5.88;4.20;;;25.80;48.70;;;;;;4906685;29;20043;-90
2021/09/17 09:57:49;;;;;;;3.83;3.42;;;25.80;48.60;;;;;;4901101;29;20461;-91
2021/09/17 10:00:16;;;;;;;4.25;3.38;;;25.90;48.60;;;;;;4917292;29;20028;-90
2021/09/17 10:02:44;;;;;;;4.18;3.72;;;25.90;48.50;;;;;;4900703;29;20088;-91
2021/09/17 10:05:12;;;;;;;5.82;4.40;;;25.90;48.60;;;;;;4899743;29;20682;-92
2021/09/17 10:07:38;;;;;;;4.53;3.80;;;25.90;48.60;;;;;;4900309;29;20035;-91
2021/09/17 10:10:11;;;;;;;4.93;3.95;;;25.90;48.60;;;;;;4899851;29;20032;-90
2021/09/17 10:12:37;;;;;;;6.63;3.70;;;25.90;48.70;;;;;;4900386;29;20039;-90
2021/09/17 10:15:04;;;;;;;5.47;3.97;;;25.90;48.60;;;;;;4900928;29;20032;-90
2021/09/17 10:17:34;;;;;;;5.47;4.38;;;25.90;48.60;;;;;;4900890;29;20032;-89
2021/09/17 10:20:00;;;;;;;4.40;4.00;;;25.90;48.50;;;;;;4901017;29;20032;-91
2021/09/17 10:22:33;;;;;;;4.40;3.72;;;26.00;48.50;;;;;;4899969;29;20039;-90
2021/09/17 10:25:26;;;;;;;7.80;4.05;;;26.10;48.40;;;;;;4900440;29;20033;-89
2021/09/17 10:28:07;;;;;;;4.50;3.75;;;26.20;48.20;;;;;;4900137;29;20024;-90
2021/09/17 10:30:35;;;;;;;4.22;3.38;;;26.20;48.00;;;;;;4900096;29;20055;-90
2021/09/17 10:33:01;;;;;;;5.55;4.80;;;26.20;48.10;;;;;;4900235;29;20047;-88
2021/09/17 10:35:40;;;;;;;7.43;4.22;;;26.30;47.90;;;;;;4901751;29;20424;-88
2021/09/17 10:38:25;;;;;;;5.05;4.28;;;26.20;47.60;;;;;;4903660;29;20107;-89
2021/09/17 10:41:02;;;;;;;5.47;3.95;;;26.20;48.00;;;;;;4903959;29;20040;-89
2021/09/17 10:43:34;;;;;;;6.47;4.10;;;26.30;47.80;;;;;;4903929;29;20028;-89
2021/09/17 10:46:07;;;;;;;6.68;5.00;;;26.40;47.80;;;;;;4905550;29;20276;-89
2021/09/17 10:48:45;;;;;;;6.97;3.97;;;26.50;47.30;;;;;;4920659;29;20043;-90
2021/09/17 10:51:29;;;;;;;7.22;4.40;;;26.50;47.30;;;;;;4936555;29;20031;-91
2021/09/17 10:54:12;;;;;;;6.18;4.35;;;26.50;47.30;;;;;;4919185;29;20027;-92
2021/09/17 10:56:47;;;;;;;5.25;4.32;;;26.60;47.10;;;;;;4939708;29;20043;-92
2021/09/17 10:59:30;;;;;;;4.47;3.75;;;26.60;47.10;;;;;;4904593;29;20040;-90
2021/09/17 11:02:42;;;;;;;6.15;4.35;;;26.60;47.20;;;;;;4921086;29;20119;-94
2021/09/17 11:09:24;;;;;;;5.65;3.85;;;26.70;46.90;;;;;;4851110;29;20080;-92
2021/09/17 11:11:53;;;;;;;4.85;3.90;;;26.80;46.80;;;;;;4862753;29;20122;-91
2021/09/17 11:14:22;;;;;;;5.82;3.72;;;26.90;46.80;;;;;;4953612;29;20485;-91
2021/09/17 11:16:53;;;;;;;6.25;4.32;;;26.90;46.70;;;;;;4951049;29;20501;-93
2021/09/17 11:19:19;;;;;;;7.00;3.85;;;26.90;46.60;;;;;;4923678;29;20460;-92
2021/09/17 11:22:19;;;;;;;5.90;3.63;;;26.90;46.50;;;;;;4934569;29;20040;-91
2021/09/17 11:25:05;;;;;;;11.73;4.25;;;26.90;46.30;;;;;;4915233;29;20104;-93
2021/09/17 11:27:39;;;;;;;5.63;3.90;;;27.00;46.40;;;;;;4914343;29;20063;-92
2021/09/17 11:30:08;;;;;;;9.07;4.38;;;27.00;46.40;;;;;;4903926;29;20076;-92
2021/09/17 11:32:35;;;;;;;5.18;4.38;;;27.20;46.40;;;;;;4904047;29;20103;-92
2021/09/17 11:35:12;;;;;;;6.15;4.20;;;27.30;46.30;;;;;;4919519;29;20071;-93
2021/09/17 11:37:38;;;;;;;5.15;3.67;;;27.40;45.90;;;;;;4905520;29;20388;-91
2021/09/17 11:40:07;;;;;;;8.98;4.93;;;27.60;46.00;;;;;;4906397;29;20040;-90
2021/09/17 11:42:33;;;;;;;5.60;4.60;;;27.80;45.50;;;;;;4921174;29;20194;-91
2021/09/17 11:45:09;;;;;;;4.63;4.13;;;27.90;45.40;;;;;;4905772;29;20020;-92
2021/09/17 11:47:35;;;;;;;5.90;3.90;;;27.90;45.20;;;;;;4923582;29;20380;-92
2021/09/17 11:50:09;;;;;;;6.28;3.55;;;27.90;45.20;;;;;;4905439;29;20024;-92
2021/09/17 11:52:44;;;;;;;5.30;4.32;;;27.90;45.40;;;;;;4903470;29;20040;-92
2021/09/17 11:55:15;;;;;;;4.85;3.67;;;27.90;45.30;;;;;;4919305;29;20036;-92
2021/09/17 11:57:45;;;;;;;5.53;3.60;;;27.90;45.30;;;;;;4903234;29;20058;-92
2021/09/17 12:00:21;;;;;;;4.78;3.95;;;27.90;44.70;;;;;;4901428;29;20044;-92
2021/09/17 12:02:53;;;;;;;4.50;3.63;;;27.90;45.00;;;;;;4902131;29;20036;-93
2021/09/17 12:05:25;;;;;;;5.37;3.87;;;27.70;44.90;;;;;;4902982;29;20092;-91
2021/09/17 12:07:52;;;;;;;5.97;4.72;;;27.60;45.00;;;;;;4915930;29;20255;-93
2021/09/17 12:10:27;;;;;;;7.95;4.68;;;27.40;45.20;;;;;;4900314;29;20048;-92
2021/09/17 12:13:08;;;;;;;9.10;4.47;;;27.20;45.40;;;;;;4901012;29;20028;-90
2021/09/17 12:15:39;;;;;;;4.47;4.07;;;27.00;45.60;;;;;;4917034;29;20132;-93
2021/09/17 12:18:08;;;;;;;5.35;4.78;;;26.90;45.70;;;;;;4902429;29;20020;-93
2021/09/17 12:20:43;;;;;;;6.03;4.68;;;26.60;45.80;;;;;;4902543;29;20037;-91
2021/09/17 12:23:10;;;;;;;5.15;4.32;;;26.40;46.00;;;;;;4914018;29;20053;-92
2021/09/17 12:25:36;;;;;;;6.88;4.15;;;26.30;46.30;;;;;;4899349;29;20384;-93
2021/09/17 12:28:05;;;;;;;4.40;4.00;;;26.20;46.40;;;;;;4899979;29;20425;-93
2021/09/17 12:30:35;;;;;;;4.22;3.83;;;26.10;46.50;;;;;;4899800;29;20080;-93
2021/09/17 12:33:25;;;;;;;5.30;4.53;;;26.00;46.70;;;;;;4899848;29;20044;-94
2021/09/17 12:35:54;;;;;;;5.80;5.05;;;25.90;47.70;;;;;;4903255;29;20028;-92
2021/09/17 12:38:25;;;;;;;8.30;5.65;;;25.80;47.30;;;;;;4914376;29;20037;-93
2021/09/17 12:40:55;;;;;;;6.47;5.55;;;25.80;46.80;;;;;;4928341;29;20041;-94
2021/09/17 12:43:30;;;;;;;7.35;4.97;;;25.80;47.40;;;;;;4917164;29;20013;-93
2021/09/17 12:46:16;;;;;;;8.57;4.97;;;25.80;47.40;;;;;;4904612;29;20048;-93
2021/09/17 12:48:47;;;;;;;8.48;4.63;;;25.80;47.70;;;;;;4919046;29;20028;-94
2021/09/17 12:51:27;;;;;;;6.53;4.53;;;25.80;47.70;;;;;;4905510;29;20033;-93
2021/09/17 12:53:58;;;;;;;6.43;4.72;;;25.90;47.80;;;;;;4912898;29;20577;-93
2021/09/17 12:56:27;;;;;;;6.50;5.07;;;26.00;47.80;;;;;;4892950;29;20033;-92
2021/09/17 12:59:11;;;;;;;7.50;4.95;;;26.00;47.80;;;;;;4913764;29;20036;-91
2021/09/17 13:01:38;;;;;;;6.93;4.97;;;26.10;47.70;;;;;;4902765;29;20158;-92
2021/09/17 13:04:06;;;;;;;5.53;4.90;;;26.20;47.70;;;;;;4917848;29;20103;-92
2021/09/17 13:06:35;;;;;;;9.77;5.05;;;26.30;47.60;;;;;;4919561;29;20032;-92
2021/09/17 13:09:04;;;;;;;6.85;5.18;;;26.30;47.40;;;;;;4903061;29;20118;-93
2021/09/17 13:11:30;;;;;;;6.50;4.82;;;26.30;47.40;;;;;;4902022;29;20040;-92
2021/09/17 13:13:56;;;;;;;5.80;4.97;;;26.30;47.40;;;;;;4914557;29;20039;-94
2021/09/17 13:16:22;;;;;;;10.80;5.68;;;26.20;47.40;;;;;;4918072;29;20469;-90
2021/09/17 13:18:48;;;;;;;7.30;4.97;;;26.20;47.40;;;;;;4917159;29;20035;-93
2021/09/17 13:21:16;;;;;;;7.80;5.10;;;26.10;47.40;;;;;;4918559;29;20044;-91
2021/09/17 13:23:42;;;;;;;8.48;4.43;;;26.00;47.50;;;;;;4908187;29;20029;-91
2021/09/17 13:26:09;;;;;;;6.07;4.85;;;26.00;48.20;;;;;;4910254;29;20028;-91
2021/09/17 13:28:34;;;;;;;7.43;4.93;;;25.90;47.60;;;;;;4919696;29;20055;-92
2021/09/17 13:31:01;;;;;;;5.70;4.60;;;25.90;47.80;;;;;;4929341;29;20055;-93
2021/09/17 13:33:27;;;;;;;8.30;4.78;;;25.80;47.90;;;;;;4930390;29;20087;-92
2021/09/17 13:35:53;;;;;;;7.32;5.25;;;25.80;48.00;;;;;;4926995;29;20076;-93
2021/09/17 13:38:18;;;;;;;5.72;5.13;;;25.90;48.10;;;;;;4916426;29;20032;-92
2021/09/17 13:40:45;;;;;;;8.75;5.55;;;25.90;48.10;;;;;;4888270;29;20465;-92
2021/09/17 13:43:11;;;;;;;7.47;5.25;;;26.10;48.20;;;;;;4898384;29;20475;-92